createdAt,value
2023-01-22T00:01:13.305Z,9.95
2023-01-22T00:03:41.302Z,9.50
2023-01-22T00:06:09.233Z,9.85
2023-01-22T00:08:36.448Z,10.10
2023-01-22T00:11:04.009Z,9.55
2023-01-22T00:13:31.106Z,9.70
2023-01-22T00:15:58.955Z,9.93
2023-01-22T00:18:26.071Z,10.68
2023-01-22T00:20:57.003Z,9.65
2023-01-22T00:23:26.274Z,10.73
2023-01-22T00:26:07.919Z,10.88
2023-01-22T00:28:34.678Z,10.27
2023-01-22T00:31:02.786Z,9.80
2023-01-22T00:33:30.063Z,10.45
2023-01-22T00:35:57.769Z,9.60
2023-01-22T00:38:24.548Z,9.32
2023-01-22T00:40:51.307Z,10.00
2023-01-22T00:43:21.077Z,9.95
2023-01-22T00:45:47.886Z,10.90
2023-01-22T00:48:16.802Z,9.93
2023-01-22T00:50:45.260Z,10.05
2023-01-22T00:53:12.029Z,9.52
2023-01-22T00:55:38.764Z,9.35
2023-01-22T00:58:05.510Z,9.30
2023-01-22T01:00:32.347Z,10.13
2023-01-22T01:03:17.568Z,9.52
2023-01-22T01:05:44.349Z,9.30
2023-01-22T01:08:11.160Z,10.75
2023-01-22T01:10:37.889Z,9.52
2023-01-22T01:13:06.346Z,9.85
2023-01-22T01:15:33.087Z,9.88
2023-01-22T01:18:00.004Z,9.35
2023-01-22T01:20:26.756Z,9.35
2023-01-22T01:22:53.538Z,9.75
2023-01-22T01:25:20.293Z,9.85
2023-01-22T01:27:47.052Z,9.48
2023-01-22T01:30:13.877Z,10.05
2023-01-22T01:32:40.619Z,9.02
2023-01-22T01:35:09.637Z,9.75
2023-01-22T01:37:36.407Z,9.75
2023-01-22T01:40:03.256Z,9.60
2023-01-22T01:42:35.815Z,9.52
2023-01-22T01:45:19.459Z,9.90
2023-01-22T01:47:49.778Z,9.48
2023-01-22T01:50:21.307Z,8.93
2023-01-22T01:52:48.194Z,10.25
2023-01-22T01:55:19.198Z,10.27
2023-01-22T01:57:46.165Z,9.95
2023-01-22T02:00:14.385Z,9.38
2023-01-22T02:02:41.585Z,9.52
2023-01-22T02:05:09.381Z,9.07
2023-01-22T02:07:36.432Z,9.45
2023-01-22T02:10:06.239Z,8.77
2023-01-22T02:12:36.772Z,9.35
2023-01-22T02:15:05.211Z,9.40
2023-01-22T02:17:32.043Z,9.93
2023-01-22T02:19:58.771Z,8.88
2023-01-22T02:22:33.621Z,9.27
2023-01-22T02:25:00.464Z,9.35
2023-01-22T02:27:27.404Z,8.93
2023-01-22T02:29:54.239Z,8.98
2023-01-22T02:32:24.347Z,9.10
2023-01-22T02:34:51.219Z,9.07
2023-01-22T02:37:18.016Z,9.57
2023-01-22T02:39:44.820Z,9.75
2023-01-22T02:42:12.553Z,8.85
2023-01-22T02:44:39.317Z,8.80
2023-01-22T02:47:06.121Z,9.73
2023-01-22T02:49:33.096Z,8.65
2023-01-22T02:51:59.896Z,8.73
2023-01-22T02:54:26.707Z,8.73
2023-01-22T02:56:55.580Z,9.02
2023-01-22T02:59:22.439Z,8.20
2023-01-22T03:01:49.324Z,8.82
2023-01-22T03:04:16.113Z,9.10
2023-01-22T03:06:45.420Z,8.90
2023-01-22T03:09:14.788Z,8.80
2023-01-22T03:11:42.597Z,8.73
2023-01-22T03:14:28.148Z,8.55
2023-01-22T03:17:14.132Z,8.57
2023-01-22T03:19:59.619Z,8.30
2023-01-22T03:22:26.451Z,7.85
2023-01-22T03:24:53.683Z,8.35
2023-01-22T03:27:22.120Z,9.10
2023-01-22T03:29:49.162Z,8.98
2023-01-22T03:32:16.456Z,8.63
2023-01-22T03:34:43.616Z,8.80
2023-01-22T03:37:14.156Z,8.40
2023-01-22T03:39:41.050Z,8.60
2023-01-22T03:42:08.230Z,8.95
2023-01-22T03:44:37.789Z,8.45
2023-01-22T03:47:05.345Z,8.95
2023-01-22T03:49:34.260Z,9.15
2023-01-22T03:52:01.024Z,9.40
2023-01-22T03:54:27.800Z,9.65
2023-01-22T03:56:54.589Z,8.25
2023-01-22T03:59:21.474Z,8.75
2023-01-22T04:01:48.266Z,8.35
2023-01-22T04:04:15.038Z,9.68
2023-01-22T04:06:41.801Z,9.45
2023-01-22T04:09:08.596Z,9.27
2023-01-22T04:11:35.342Z,9.55
2023-01-22T04:14:02.069Z,8.15
2023-01-22T04:16:28.920Z,9.32
2023-01-22T04:18:55.740Z,10.05
2023-01-22T04:21:25.731Z,8.55
2023-01-22T04:23:52.532Z,9.65
2023-01-22T04:26:21.849Z,9.45
2023-01-22T04:31:29.374Z,9.57
2023-01-22T04:33:58.746Z,9.40
2023-01-22T04:36:28.040Z,9.65
2023-01-22T04:38:55.632Z,9.77
2023-01-22T04:41:22.412Z,8.98
2023-01-22T04:43:49.139Z,9.18
2023-01-22T04:46:17.087Z,9.60
2023-01-22T04:48:43.960Z,9.80
2023-01-22T04:51:10.739Z,8.95
2023-01-22T04:53:37.730Z,9.05
2023-01-22T04:56:04.867Z,9.05
2023-01-22T04:58:31.708Z,8.80
2023-01-22T05:00:58.549Z,9.25
2023-01-22T05:03:25.379Z,9.50
2023-01-22T05:05:53.133Z,9.45
2023-01-22T05:08:22.313Z,9.65
2023-01-22T05:10:49.091Z,9.48
2023-01-22T05:13:15.816Z,8.95
2023-01-22T05:15:42.736Z,9.25
2023-01-22T05:18:09.549Z,9.00
2023-01-22T05:20:36.353Z,9.48
2023-01-22T05:23:03.113Z,8.85
2023-01-22T05:25:29.885Z,9.27
2023-01-22T05:27:56.635Z,9.00
2023-01-22T05:30:23.479Z,9.10
2023-01-22T05:32:50.307Z,8.75
2023-01-22T05:35:17.160Z,8.73
2023-01-22T05:37:43.933Z,9.23
2023-01-22T05:40:11.291Z,8.60
2023-01-22T05:42:38.046Z,8.65
2023-01-22T05:45:08.067Z,8.70
2023-01-22T05:47:34.837Z,9.13
2023-01-22T05:50:03.622Z,8.63
2023-01-22T05:52:30.371Z,8.98
2023-01-22T05:54:59.877Z,8.80
2023-01-22T05:57:30.427Z,8.70
2023-01-22T05:59:57.193Z,8.80
2023-01-22T06:02:24.002Z,9.18
2023-01-22T06:04:53.233Z,9.60
2023-01-22T06:07:20.000Z,9.10
2023-01-22T06:09:49.539Z,9.52
2023-01-22T06:12:18.989Z,9.30
2023-01-22T06:14:45.722Z,9.18
2023-01-22T06:17:12.489Z,8.88
2023-01-22T06:19:39.354Z,9.68
2023-01-22T06:22:06.144Z,10.18
2023-01-22T06:24:32.950Z,10.38
2023-01-22T06:26:59.691Z,10.65
2023-01-22T06:29:26.488Z,9.48
2023-01-22T06:31:53.264Z,9.68
2023-01-22T06:34:20.033Z,9.20
2023-01-22T06:36:46.775Z,8.75
2023-01-22T06:39:13.697Z,9.00
2023-01-22T06:41:40.609Z,10.15
2023-01-22T06:44:07.404Z,9.98
2023-01-22T06:46:34.203Z,9.38
2023-01-22T06:49:04.256Z,9.93
2023-01-22T06:51:48.612Z,10.20
2023-01-22T06:54:15.454Z,9.35
2023-01-22T06:56:42.207Z,8.40
2023-01-22T06:59:09.204Z,8.70
2023-01-22T07:01:36.109Z,8.98
2023-01-22T07:04:02.992Z,9.18
2023-01-22T07:06:29.801Z,9.98
2023-01-22T07:13:11.796Z,8.85
2023-01-22T07:19:30.084Z,8.68
2023-01-22T07:21:57.213Z,8.75
2023-01-22T07:24:24.023Z,8.07
2023-01-22T07:26:50.755Z,8.27
2023-01-22T07:33:21.128Z,7.47
2023-01-22T07:43:17.576Z,7.43
2023-01-22T07:45:44.722Z,7.50
2023-01-22T07:48:11.730Z,7.70
2023-01-22T07:50:40.207Z,7.05
2023-01-22T07:57:04.336Z,6.85
2023-01-22T08:03:27.170Z,6.22
2023-01-22T08:08:40.012Z,7.30
2023-01-22T08:11:06.784Z,7.22
2023-01-22T08:13:33.695Z,8.30
2023-01-22T08:16:00.686Z,7.47
2023-01-22T08:18:28.892Z,8.27
2023-01-22T08:20:55.651Z,6.90
2023-01-22T08:23:22.388Z,7.25
2023-01-22T08:25:51.140Z,8.30
2023-01-22T08:28:17.881Z,6.80
2023-01-22T08:30:46.834Z,5.43
2023-01-22T08:33:15.951Z,6.32
2023-01-22T08:35:42.843Z,7.50
2023-01-22T08:41:57.790Z,6.40
2023-01-22T08:44:25.601Z,6.65
2023-01-22T08:50:44.104Z,7.03
2023-01-22T08:53:10.999Z,5.57
2023-01-22T08:55:37.795Z,6.03
2023-01-22T08:58:06.966Z,6.10
2023-01-22T09:00:33.780Z,5.15
2023-01-22T09:03:00.764Z,6.00
2023-01-22T09:05:28.485Z,6.30
2023-01-22T09:07:55.266Z,7.00
2023-01-22T09:10:22.503Z,7.28
2023-01-22T09:12:49.545Z,6.43
2023-01-22T09:15:16.484Z,6.63
2023-01-22T09:17:43.283Z,6.65
2023-01-22T09:20:14.922Z,6.78
2023-01-22T09:22:44.313Z,6.50
2023-01-22T09:25:15.676Z,6.82
2023-01-22T09:27:42.483Z,7.05
2023-01-22T09:30:10.141Z,5.88
2023-01-22T09:32:37.118Z,6.63
2023-01-22T09:35:06.483Z,7.68
2023-01-22T09:37:34.872Z,7.00
2023-01-22T09:40:01.666Z,7.15
2023-01-22T09:42:36.208Z,8.38
2023-01-22T09:45:12.122Z,8.02
2023-01-22T09:47:47.579Z,6.78
2023-01-22T09:50:24.006Z,6.40
2023-01-22T09:52:54.496Z,6.57
2023-01-22T09:55:23.955Z,6.45
2023-01-22T09:57:55.185Z,6.53
2023-01-22T10:00:38.653Z,6.97
2023-01-22T10:03:27.047Z,6.97
2023-01-22T10:06:06.964Z,6.63
2023-01-22T10:08:38.866Z,7.90
2023-01-22T10:11:11.423Z,7.70
2023-01-22T10:13:39.746Z,7.75
2023-01-22T10:16:08.062Z,7.35
2023-01-22T10:18:49.518Z,8.02
2023-01-22T10:21:41.718Z,7.95
2023-01-22T10:24:13.241Z,8.73
2023-01-22T10:26:49.736Z,7.25
2023-01-22T10:29:33.243Z,6.80
2023-01-22T10:32:02.314Z,6.72
2023-01-22T10:34:35.988Z,7.32
2023-01-22T10:37:20.637Z,8.00
2023-01-22T10:39:48.415Z,8.00
2023-01-22T10:42:27.256Z,7.97
2023-01-22T10:45:11.345Z,9.07
2023-01-22T10:47:38.189Z,7.90
2023-01-22T10:50:12.460Z,8.10
2023-01-22T10:52:48.169Z,7.50
2023-01-22T10:55:25.624Z,9.18
2023-01-22T10:58:03.474Z,8.95
2023-01-22T11:00:42.967Z,9.18
2023-01-22T11:03:35.787Z,9.57
2023-01-22T11:06:27.493Z,11.55
2023-01-22T11:09:11.395Z,9.52
2023-01-22T11:11:43.578Z,8.02
2023-01-22T11:14:25.909Z,8.13
2023-01-22T11:16:56.791Z,7.35
2023-01-22T11:19:36.799Z,6.15
2023-01-22T11:22:35.746Z,6.53
2023-01-22T11:25:08.074Z,5.90
2023-01-22T11:27:56.250Z,5.13
2023-01-22T11:30:59.504Z,5.45
2023-01-22T11:33:46.876Z,6.47
2023-01-22T11:36:26.337Z,6.47
2023-01-22T11:39:01.478Z,6.03
2023-01-22T11:42:17.988Z,4.50
2023-01-22T11:45:09.050Z,4.40
2023-01-22T11:48:08.650Z,4.53
2023-01-22T11:51:01.914Z,4.57
2023-01-22T11:53:40.200Z,4.47
2023-01-22T11:56:16.871Z,4.50
2023-01-22T11:58:47.539Z,4.95
2023-01-22T12:01:26.332Z,4.70
2023-01-22T12:04:10.169Z,5.00
2023-01-22T12:06:56.923Z,5.57
2023-01-22T12:09:34.413Z,4.45
2023-01-22T12:12:02.664Z,5.40
2023-01-22T12:15:15.211Z,5.40
2023-01-22T12:18:03.200Z,5.85
2023-01-22T12:20:37.813Z,5.30
2023-01-22T12:23:33.361Z,6.68
2023-01-22T12:26:05.466Z,7.20
2023-01-22T12:28:56.496Z,6.45
2023-01-22T12:31:43.487Z,6.55
2023-01-22T12:34:25.546Z,6.80
2023-01-22T12:37:00.668Z,6.55
2023-01-22T12:39:50.929Z,6.20
2023-01-22T12:42:31.838Z,6.45
2023-01-22T12:45:21.504Z,6.80
2023-01-22T12:47:58.822Z,6.20
2023-01-22T12:50:26.910Z,6.30
2023-01-22T12:53:03.458Z,7.40
2023-01-22T12:55:34.204Z,4.90
2023-01-22T12:58:02.102Z,5.07
2023-01-22T13:00:35.957Z,5.35
2023-01-22T13:03:30.637Z,4.57
2023-01-22T13:05:59.793Z,4.57
2023-01-22T13:08:43.763Z,4.07
2023-01-22T13:11:26.732Z,4.95
2023-01-22T13:14:15.183Z,3.90
2023-01-22T13:16:55.245Z,4.38
2023-01-22T13:19:44.849Z,4.20
2023-01-22T13:22:28.100Z,4.68
2023-01-22T13:25:01.079Z,5.03
2023-01-22T13:27:31.001Z,7.38
2023-01-22T13:30:08.119Z,5.30
2023-01-22T13:32:35.001Z,5.07
2023-01-22T13:35:03.695Z,5.60
2023-01-22T13:37:30.972Z,5.70
2023-01-22T13:39:59.974Z,5.82
2023-01-22T13:42:27.892Z,5.43
2023-01-22T13:44:56.402Z,6.60
2023-01-22T13:47:35.138Z,7.30
2023-01-22T13:50:04.995Z,6.50
2023-01-22T13:52:33.569Z,6.45
2023-01-22T13:55:18.502Z,5.85
2023-01-22T13:58:00.733Z,5.85
2023-01-22T14:00:37.869Z,6.43
2023-01-22T14:03:20.461Z,6.53
2023-01-22T14:05:50.422Z,8.15
2023-01-22T14:08:17.270Z,7.38
2023-01-22T14:10:44.161Z,6.38
2023-01-22T14:13:13.573Z,5.72
2023-01-22T14:15:41.476Z,6.53
2023-01-22T14:18:14.336Z,7.32
2023-01-22T14:20:48.875Z,7.18
2023-01-22T14:23:17.657Z,6.88
2023-01-22T14:25:49.699Z,8.48
2023-01-22T14:28:16.883Z,8.48
2023-01-22T14:30:44.666Z,9.23
2023-01-22T14:33:20.139Z,9.27
2023-01-22T14:35:51.008Z,9.52
2023-01-22T14:38:18.939Z,9.27
2023-01-22T14:41:08.814Z,7.00
2023-01-22T14:43:35.819Z,7.63
2023-01-22T14:46:18.270Z,7.35
2023-01-22T14:48:45.108Z,7.32
2023-01-22T14:51:14.563Z,7.70
2023-01-22T14:53:41.529Z,8.52
2023-01-22T14:56:08.449Z,10.10
2023-01-22T14:58:36.310Z,11.07
2023-01-22T15:01:15.564Z,13.20
2023-01-22T15:03:42.385Z,9.13
2023-01-22T15:06:09.256Z,7.82
2023-01-22T15:08:38.020Z,8.75
2023-01-22T15:11:07.047Z,7.30
2023-01-22T15:13:34.234Z,8.50
2023-01-22T15:16:07.995Z,8.68
2023-01-22T15:18:35.743Z,9.98
2023-01-22T15:21:06.636Z,9.55
2023-01-22T15:23:37.108Z,9.55
2023-01-22T15:26:09.537Z,9.55
2023-01-22T15:28:36.651Z,8.85
2023-01-22T15:31:09.807Z,8.93
2023-01-22T15:33:37.637Z,9.15
2023-01-22T15:36:05.642Z,9.15
2023-01-22T15:38:32.483Z,9.30
2023-01-22T15:41:08.032Z,10.18
2023-01-22T15:43:34.886Z,10.02
2023-01-22T15:46:01.796Z,10.20
2023-01-22T15:48:28.576Z,10.32
2023-01-22T15:51:11.555Z,9.73
2023-01-22T15:53:41.355Z,9.77
2023-01-22T15:56:09.672Z,9.60
2023-01-22T15:58:36.502Z,9.32
2023-01-22T16:01:03.373Z,10.70
2023-01-22T16:03:32.277Z,16.15
2023-01-22T16:06:19.980Z,14.65
2023-01-22T16:08:47.247Z,15.10
2023-01-22T16:11:14.774Z,14.80
2023-01-22T16:13:43.408Z,13.90
2023-01-22T16:16:39.390Z,13.68
2023-01-22T16:19:08.107Z,15.13
2023-01-22T16:21:37.498Z,25.63
2023-01-22T16:24:05.885Z,26.23
2023-01-22T16:26:36.210Z,17.50
2023-01-22T16:29:05.513Z,14.35
2023-01-22T16:31:36.286Z,14.18
2023-01-22T16:34:15.321Z,15.17
2023-01-22T16:36:43.018Z,15.73
2023-01-22T16:39:20.160Z,14.88
2023-01-22T16:41:49.237Z,14.40
2023-01-22T16:44:18.388Z,14.07
2023-01-22T16:46:47.667Z,14.63
2023-01-22T16:49:17.805Z,14.68
2023-01-22T16:52:00.269Z,14.93
2023-01-22T16:54:35.339Z,15.43
2023-01-22T16:57:04.390Z,14.25
2023-01-22T16:59:34.828Z,14.48
2023-01-22T17:02:04.863Z,13.70
2023-01-22T17:04:34.785Z,14.30
2023-01-22T17:07:01.735Z,14.32
2023-01-22T17:09:31.405Z,13.75
2023-01-22T17:12:00.962Z,14.88
2023-01-22T17:14:29.918Z,13.45
2023-01-22T17:16:58.120Z,12.57
2023-01-22T17:19:24.991Z,11.55
2023-01-22T17:22:00.979Z,13.02
2023-01-22T17:24:29.771Z,12.82
2023-01-22T17:26:59.937Z,14.10
2023-01-22T17:29:26.754Z,13.95
2023-01-22T17:31:53.573Z,15.50
2023-01-22T17:34:20.796Z,15.27
2023-01-22T17:36:52.184Z,16.77
2023-01-22T17:39:24.040Z,16.05
2023-01-22T17:41:50.806Z,17.33
2023-01-22T17:44:17.636Z,18.25
2023-01-22T17:46:47.224Z,18.42
2023-01-22T17:49:14.125Z,17.20
2023-01-22T17:51:40.955Z,15.82
2023-01-22T17:54:07.987Z,15.60
2023-01-22T17:56:37.617Z,15.52
2023-01-22T17:59:06.268Z,16.33
2023-01-22T18:01:35.160Z,15.75
2023-01-22T18:04:06.525Z,14.93
2023-01-22T18:06:34.166Z,14.63
2023-01-22T18:09:02.508Z,16.35
2023-01-22T18:11:30.138Z,15.30
2023-01-22T18:14:03.155Z,14.93
2023-01-22T18:16:33.361Z,15.27
2023-01-22T18:19:04.634Z,15.90
2023-01-22T18:21:33.831Z,15.52
2023-01-22T18:24:02.476Z,14.77
2023-01-22T18:26:29.548Z,15.05
2023-01-22T18:29:00.083Z,15.07
2023-01-22T18:31:29.107Z,14.57
2023-01-22T18:34:02.921Z,15.15
2023-01-22T18:36:36.718Z,14.55
2023-01-22T18:39:08.922Z,14.90
2023-01-22T18:41:36.706Z,15.70
2023-01-22T18:44:06.648Z,15.18
2023-01-22T18:46:39.101Z,14.70
2023-01-22T18:49:19.527Z,14.10
2023-01-22T18:51:46.397Z,13.90
2023-01-22T18:54:13.239Z,13.93
2023-01-22T18:56:42.055Z,14.00
2023-01-22T18:59:08.926Z,16.63
2023-01-22T19:01:38.237Z,16.05
2023-01-22T19:04:08.549Z,14.20
2023-01-22T19:06:37.443Z,15.07
2023-01-22T19:09:12.182Z,13.93
2023-01-22T19:11:40.901Z,14.27
2023-01-22T19:14:16.349Z,13.50
2023-01-22T19:16:44.973Z,13.77
2023-01-22T19:19:13.635Z,16.00
2023-01-22T19:21:46.629Z,17.40
2023-01-22T19:24:15.656Z,15.93
2023-01-22T19:26:45.938Z,17.77
2023-01-22T19:29:16.632Z,17.75
2023-01-22T19:31:46.488Z,18.40
2023-01-22T19:34:18.559Z,17.42
2023-01-22T19:39:14.905Z,17.60
2023-01-22T19:41:42.471Z,15.98
2023-01-22T19:44:11.336Z,16.60
2023-01-22T19:46:39.155Z,17.63
2023-01-22T19:49:07.598Z,16.23
2023-01-22T19:51:37.125Z,16.85
2023-01-22T19:54:05.449Z,15.65
2023-01-22T19:56:36.260Z,17.63
2023-01-22T19:59:10.163Z,15.60
2023-01-22T20:01:39.445Z,15.80
2023-01-22T20:04:19.129Z,15.75
2023-01-22T20:06:50.722Z,14.93
2023-01-22T20:09:21.968Z,15.05
2023-01-22T20:11:52.935Z,15.00
2023-01-22T20:14:24.525Z,13.98
2023-01-22T20:16:51.853Z,14.25
2023-01-22T20:19:18.667Z,15.57
2023-01-22T20:21:45.440Z,15.93
2023-01-22T20:24:12.239Z,16.45
2023-01-22T20:26:39.403Z,16.98
2023-01-22T20:29:06.350Z,17.35
2023-01-22T20:31:33.173Z,17.90
2023-01-22T20:34:01.602Z,15.70
2023-01-22T20:36:29.297Z,14.68
2023-01-22T20:38:56.619Z,15.57
2023-01-22T20:41:27.297Z,15.10
2023-01-22T20:43:54.674Z,15.05
2023-01-22T20:46:23.764Z,15.10
2023-01-22T20:48:51.519Z,16.40
2023-01-22T20:51:21.137Z,16.58
2023-01-22T20:53:49.601Z,17.77
2023-01-22T20:56:20.972Z,18.13
2023-01-22T20:58:48.016Z,18.10
2023-01-22T21:01:21.637Z,18.13
2023-01-22T21:03:48.758Z,17.33
2023-01-22T21:06:18.029Z,16.83
2023-01-22T21:08:48.976Z,16.10
2023-01-22T21:11:20.321Z,16.55
2023-01-22T21:13:51.184Z,16.88
2023-01-22T21:16:23.183Z,19.67
2023-01-22T21:18:52.650Z,21.45
2023-01-22T21:21:20.018Z,22.35
2023-01-22T21:23:49.304Z,47.45
2023-01-22T21:26:20.456Z,25.30
2023-01-22T21:28:48.308Z,22.30
2023-01-22T21:31:20.197Z,24.42
2023-01-22T21:33:48.802Z,24.92
2023-01-22T21:36:19.561Z,26.67
2023-01-22T21:38:49.408Z,22.97
2023-01-22T21:41:38.645Z,22.30
2023-01-22T21:44:26.014Z,24.42
2023-01-22T21:46:59.829Z,21.77
2023-01-22T21:49:27.096Z,19.67
2023-01-22T21:52:01.118Z,19.33
2023-01-22T21:54:35.338Z,19.05
2023-01-22T21:57:03.100Z,21.13
2023-01-22T21:59:32.329Z,19.80
2023-01-22T22:01:59.232Z,18.05
2023-01-22T22:04:27.161Z,18.15
2023-01-22T22:06:56.709Z,20.83
2023-01-22T22:09:27.104Z,18.15
2023-01-22T22:11:58.882Z,16.77
2023-01-22T22:16:53.455Z,15.50
2023-01-22T22:19:23.654Z,16.23
2023-01-22T22:21:51.445Z,17.35
2023-01-22T22:24:19.595Z,16.85
2023-01-22T22:26:46.464Z,16.65
2023-01-22T22:29:13.252Z,17.27
2023-01-22T22:31:40.292Z,16.67
2023-01-22T22:34:07.179Z,17.33
2023-01-22T22:36:34.622Z,16.33
2023-01-22T22:39:03.022Z,16.65
2023-01-22T22:41:33.285Z,14.60
2023-01-22T22:44:00.339Z,14.68
2023-01-22T22:46:32.871Z,14.40
2023-01-22T22:49:03.649Z,15.75
2023-01-22T22:51:38.951Z,15.77
2023-01-22T22:54:11.100Z,15.60
2023-01-22T22:56:38.423Z,15.18
2023-01-22T22:59:05.301Z,15.00
2023-01-22T23:01:33.206Z,14.60
2023-01-22T23:04:01.230Z,13.80
2023-01-22T23:06:33.188Z,15.50
2023-01-22T23:09:00.759Z,14.60
2023-01-22T23:11:32.592Z,12.30
2023-01-22T23:14:05.981Z,14.15
2023-01-22T23:16:36.228Z,13.70
2023-01-22T23:19:08.094Z,13.68
2023-01-22T23:24:04.128Z,12.10
2023-01-22T23:26:31.696Z,11.20
2023-01-22T23:29:02.208Z,12.35
2023-01-22T23:31:31.292Z,10.10
2023-01-22T23:33:59.714Z,10.10
2023-01-22T23:36:26.746Z,10.70
2023-01-22T23:38:54.584Z,11.63
2023-01-22T23:41:22.006Z,10.95
2023-01-22T23:43:49.993Z,12.52
2023-01-22T23:46:22.672Z,12.43
2023-01-22T23:48:50.413Z,12.23
2023-01-22T23:51:18.131Z,11.02
2023-01-22T23:53:52.996Z,11.98
2023-01-22T23:56:22.243Z,11.63
2023-01-22T23:58:49.680Z,9.73
